Time;durP1;ratioP1;P1;durP2;ratioP2;P2;SDS_P1;SDS_P2;PMS_P1;PMS_P2;Temp;Humidity;BMP_temperature;BMP_pressure;BME280_temperature;BME280_humidity;BME280_pressure;Samples;Min_cycle;Max_cycle;Signal;HPM_P1;HPM_P2
2023/03/17 08:03:26;;;;;;;1.30;1.08;;;;;;;7.80;100.00;101667.38;2619021;46;20500;-53
2023/03/17 08:05:56;;;;;;;3.30;1.63;;;;;;;7.78;100.00;101638.16;2615610;54;20264;-53
2023/03/17 08:08:27;;;;;;;2.10;1.90;;;;;;;7.74;100.00;101609.91;2615818;46;20180;-50
2023/03/17 08:11:03;;;;;;;1.73;1.63;;;;;;;8.02;100.00;101677.84;2614954;54;20204;-51
2023/03/17 08:13:34;;;;;;;4.63;1.80;;;;;;;7.90;100.00;101650.66;2612591;54;20268;-53
2023/03/17 08:16:04;;;;;;;4.57;1.70;;;;;;;8.08;100.00;101646.63;2611344;54;20217;-54
2023/03/17 08:18:37;;;;;;;2.63;1.80;;;;;;;7.92;100.00;101637.69;2616856;54;20173;-57
2023/03/17 08:21:07;;;;;;;3.67;0.83;;;;;;;7.94;100.00;101644.50;2617422;46;20707;-53
2023/03/17 08:23:37;;;;;;;0.90;0.77;;;;;;;8.15;100.00;101624.81;2617066;54;20165;-51
2023/03/17 08:26:08;;;;;;;1.00;0.90;;;;;;;8.16;100.00;101636.00;2617525;54;20243;-53
2023/03/17 08:28:38;;;;;;;2.27;1.57;;;;;;;8.34;100.00;101644.00;2616996;54;20157;-54
2023/03/17 08:31:11;;;;;;;1.03;0.90;;;;;;;8.23;100.00;101634.88;2617178;47;20222;-52
2023/03/17 08:33:47;;;;;;;1.47;0.77;;;;;;;8.62;100.00;101605.06;2616998;54;20194;-51
2023/03/17 08:36:17;;;;;;;1.60;0.77;;;;;;;8.49;98.45;101632.25;2617204;54;20727;-51
2023/03/17 08:38:49;;;;;;;1.27;1.00;;;;;;;8.39;96.28;101617.97;2617989;54;20162;-53
2023/03/17 08:41:26;;;;;;;1.23;0.70;;;;;;;8.48;96.71;101617.63;2618506;54;20173;-51
2023/03/17 08:43:57;;;;;;;2.00;1.03;;;;;;;8.50;95.79;101602.91;2617663;47;20172;-51
2023/03/17 08:46:29;;;;;;;0.80;0.73;;;;;;;8.53;98.59;101613.16;2618209;54;20192;-53
2023/03/17 08:49:03;;;;;;;0.90;0.80;;;;;;;8.64;100.00;101618.75;2618036;54;20166;-53
2023/03/17 08:51:36;;;;;;;2.37;0.70;;;;;;;8.54;100.00;101557.09;2618162;54;20722;-53
2023/03/17 08:54:07;;;;;;;1.73;1.40;;;;;;;8.64;100.00;101576.53;2617972;51;20164;-54
2023/03/17 08:56:37;;;;;;;1.77;1.17;;;;;;;8.52;93.54;101619.22;2617936;54;20197;-53
2023/03/17 08:59:07;;;;;;;3.23;1.23;;;;;;;8.37;92.88;101597.34;2618556;39;20602;-54
2023/03/17 09:01:39;;;;;;;2.10;1.57;;;;;;;8.31;91.82;101576.03;2618001;54;20185;-52
2023/03/17 09:04:11;;;;;;;5.37;1.37;;;;;;;8.48;87.24;101635.75;2617970;47;20161;-54
2023/03/17 09:06:41;;;;;;;3.00;1.50;;;;;;;8.64;87.48;101589.44;2617933;54;20155;-52
2023/03/17 09:09:33;;;;;;;1.60;1.13;;;;;;;8.82;90.33;101609.47;2617732;54;20708;-53
2023/03/17 09:12:05;;;;;;;1.67;1.20;;;;;;;8.77;87.39;101620.00;2618182;54;20153;-54
2023/03/17 09:14:35;;;;;;;1.13;0.90;;;;;;;8.60;86.48;101606.84;2617794;54;20189;-53
2023/03/17 09:17:14;;;;;;;0.97;0.70;;;;;;;8.83;89.99;101580.94;2618144;54;20665;-54
2023/03/17 09:19:46;;;;;;;1.33;1.23;;;;;;;8.87;89.89;101597.19;2617679;54;20204;-49
2023/03/17 09:22:19;;;;;;;3.10;0.87;;;;;;;9.00;90.68;101597.53;2618320;39;20582;-52
2023/03/17 09:24:49;;;;;;;1.80;1.10;;;;;;;8.73;84.23;101589.97;2618064;54;20173;-49
2023/03/17 09:27:19;;;;;;;1.63;0.83;;;;;;;8.73;83.08;101594.28;2617539;47;20153;-52
2023/03/17 09:29:49;;;;;;;3.03;0.77;;;;;;;9.13;90.19;101609.97;2618002;54;20233;-51
2023/03/17 09:32:20;;;;;;;0.97;0.60;;;;;;;9.00;86.02;101607.91;2618171;47;20165;-52
2023/03/17 09:34:52;;;;;;;1.23;0.80;;;;;;;9.25;85.72;101608.63;2617898;54;20188;-55
2023/03/17 09:37:22;;;;;;;0.73;0.57;;;;;;;9.24;83.24;101604.34;2617821;47;20190;-53
2023/03/17 09:39:53;;;;;;;1.20;1.07;;;;;;;9.47;83.03;101613.78;2617994;47;20180;-53
2023/03/17 09:42:38;;;;;;;1.17;0.90;;;;;;;9.48;84.30;101584.38;2870335;36;43338;-51
2023/03/17 09:45:23;;;;;;;2.93;1.00;;;;;;;9.47;79.48;101596.47;2663188;36;20220;-52
2023/03/17 09:48:23;;;;;;;0.57;0.40;;;;;;;9.72;78.15;101604.91;2617691;54;20165;-54
2023/03/17 09:50:59;;;;;;;1.47;1.07;;;;;;;9.23;69.97;101628.53;2618315;54;20184;-51
2023/03/17 09:53:33;;;;;;;1.70;1.03;;;;;;;9.08;73.51;101626.56;2617792;54;20165;-54
2023/03/17 09:56:10;;;;;;;5.00;0.87;;;;;;;9.01;69.60;101659.63;2617840;54;20224;-52
2023/03/17 09:58:42;;;;;;;1.73;0.70;;;;;;;9.19;70.55;101598.50;2617656;54;20176;-53
2023/03/17 10:01:12;;;;;;;2.93;2.83;;;;;;;9.30;69.01;101627.41;2618090;47;20173;-52
2023/03/17 10:03:43;;;;;;;1.87;0.60;;;;;;;9.37;71.83;101582.22;2617669;54;20688;-54
2023/03/17 10:06:36;;;;;;;0.93;0.63;;;;;;;9.26;73.50;101605.13;2618941;39;20586;-57
2023/03/17 10:09:22;;;;;;;0.70;0.70;;;;;;;9.39;68.89;101642.56;2617313;47;20184;-52
2023/03/17 10:12:04;;;;;;;0.83;0.83;;;;;;;9.48;70.58;101616.31;2617875;54;20193;-51
2023/03/17 10:14:47;;;;;;;2.37;0.87;;;;;;;9.49;69.93;101617.16;2617585;54;20145;-52
2023/03/17 10:17:22;;;;;;;3.10;1.23;;;;;;;9.50;68.20;101590.34;2617553;54;20708;-54
2023/03/17 10:19:59;;;;;;;3.30;1.53;;;;;;;9.67;70.74;101622.41;2617860;54;20684;-51
2023/03/17 10:22:39;;;;;;;2.23;1.40;;;;;;;9.60;65.22;101628.75;2617665;54;20171;-52
2023/03/17 10:25:16;;;;;;;3.50;0.80;;;;;;;9.65;68.86;101607.84;2617925;54;20232;-54
2023/03/17 10:27:52;;;;;;;1.33;0.93;;;;;;;9.73;67.78;101574.69;2617590;54;20164;-53
2023/03/17 10:30:24;;;;;;;1.40;0.80;;;;;;;9.89;64.81;101624.94;2617789;47;20206;-52
2023/03/17 10:32:58;;;;;;;1.37;0.80;;;;;;;9.67;69.16;101565.41;2617738;39;20587;-52
2023/03/17 10:35:28;;;;;;;1.27;0.93;;;;;;;9.86;67.40;101597.44;2617679;54;20700;-54
2023/03/17 10:38:01;;;;;;;5.17;1.30;;;;;;;9.86;66.04;101594.84;2617544;47;20161;-54
2023/03/17 10:40:46;;;;;;;2.17;1.10;;;;;;;9.73;63.34;101574.69;2618046;54;20203;-55
2023/03/17 10:43:20;;;;;;;1.80;0.90;;;;;;;9.71;63.54;101623.13;2617240;54;20672;-50
2023/03/17 10:46:01;;;;;;;2.80;1.10;;;;;;;9.79;63.67;101559.69;2617238;54;20219;-53
2023/03/17 10:48:33;;;;;;;5.57;0.87;;;;;;;9.87;65.64;101583.53;2617355;54;20168;-51
2023/03/17 10:51:09;;;;;;;2.50;0.70;;;;;;;10.12;63.80;101578.13;2617884;54;20175;-51
2023/03/17 10:53:44;;;;;;;0.87;0.60;;;;;;;9.88;63.75;101584.38;2617527;47;20157;-52
2023/03/17 10:56:24;;;;;;;0.27;0.27;;;;;;;10.33;69.68;101571.19;2616480;54;20197;-55
2023/03/17 10:58:57;;;;;;;2.87;0.77;;;;;;;10.38;67.49;101542.44;2616162;54;20168;-56
2023/03/17 11:01:31;;;;;;;0.63;0.53;;;;;;;10.29;62.61;101570.47;2617076;54;20256;-55
2023/03/17 11:04:02;;;;;;;2.47;0.73;;;;;;;10.15;63.19;101590.16;2616429;54;20221;-54
2023/03/17 11:06:40;;;;;;;3.87;0.70;;;;;;;9.95;65.20;101572.00;2616783;47;20189;-51
2023/03/17 11:09:20;;;;;;;1.20;0.50;;;;;;;10.02;63.44;101579.47;2617321;54;20176;-54
2023/03/17 11:11:51;;;;;;;1.67;0.90;;;;;;;10.64;63.58;101576.66;2617513;54;20692;-52
2023/03/17 11:14:22;;;;;;;0.87;0.50;;;;;;;10.68;60.69;101570.41;2617259;47;20188;-52
2023/03/17 11:16:56;;;;;;;0.97;0.70;;;;;;;10.12;58.37;101598.03;2617752;54;20173;-53
2023/03/17 11:19:38;;;;;;;0.17;0.17;;;;;;;10.24;59.37;101593.19;2618124;54;20163;-56
2023/03/17 11:22:14;;;;;;;1.57;1.43;;;;;;;10.35;60.44;101586.69;2618459;47;20154;-51
2023/03/17 11:25:01;;;;;;;0.47;0.47;;;;;;;10.73;57.12;101584.00;2617625;47;20193;-55
2023/03/17 11:27:34;;;;;;;0.03;0.03;;;;;;;10.96;58.64;101567.34;2617355;54;20165;-55
2023/03/17 11:30:24;;;;;;;0.20;0.20;;;;;;;11.28;59.55;101571.81;2618131;39;20914;-52
2023/03/17 11:32:59;;;;;;;1.80;0.53;;;;;;;11.46;57.84;101577.88;2617339;54;20209;-54
2023/03/17 11:35:37;;;;;;;1.23;0.10;;;;;;;11.11;59.66;101581.38;2617221;54;20200;-54
2023/03/17 11:38:20;;;;;;;1.23;0.30;;;;;;;10.95;59.30;101554.44;2617148;54;20256;-52
2023/03/17 11:41:30;;;;;;;0.37;0.37;;;;;;;10.76;58.12;101562.25;2617641;47;20196;-51
2023/03/17 11:44:22;;;;;;;0.30;0.27;;;;;;;10.92;58.09;101560.63;2616901;54;20176;-50
2023/03/17 11:46:57;;;;;;;1.50;0.53;;;;;;;11.18;58.42;101557.63;2617162;54;20165;-51
2023/03/17 11:49:34;;;;;;;0.70;0.23;;;;;;;11.40;58.21;101548.75;2616704;47;20157;-52
2023/03/17 11:52:13;;;;;;;0.40;0.40;;;;;;;11.79;62.03;101538.97;2617967;54;20160;-53
2023/03/17 11:54:50;;;;;;;0.80;0.50;;;;;;;11.36;57.47;101566.25;2618065;54;20692;-53
2023/03/17 11:57:31;;;;;;;0.10;0.10;;;;;;;11.23;56.85;101552.19;2617394;54;20161;-54
2023/03/17 12:00:06;;;;;;;0.33;0.30;;;;;;;11.68;57.72;101531.69;2617641;51;20197;-54
2023/03/17 12:02:44;;;;;;;0.10;0.10;;;;;;;11.50;61.85;101527.44;2617835;54;20161;-53
2023/03/17 12:05:18;;;;;;;0.17;0.17;;;;;;;12.00;57.14;101545.63;2618157;54;20177;-51
2023/03/17 12:07:53;;;;;;;0.47;0.30;;;;;;;11.32;56.08;101551.72;2617849;54;20161;-53
2023/03/17 12:10:27;;;;;;;1.67;0.70;;;;;;;11.43;55.87;101520.88;2617887;54;20701;-53
2023/03/17 12:13:04;;;;;;;2.97;1.10;;;;;;;11.60;54.86;101540.78;2617578;54;20157;-57
2023/03/17 12:15:39;;;;;;;1.00;0.90;;;;;;;11.50;55.80;101553.41;2617607;47;20204;-58
2023/03/17 12:18:17;;;;;;;2.00;0.70;;;;;;;11.71;54.75;101561.91;2617965;39;20317;-56
2023/03/17 12:20:53;;;;;;;0.80;0.80;;;;;;;11.80;55.17;101532.00;2618147;47;20193;-51
2023/03/17 12:23:30;;;;;;;1.97;0.43;;;;;;;11.62;54.79;101526.81;2617902;54;20164;-50
2023/03/17 12:26:06;;;;;;;0.70;0.70;;;;;;;11.95;56.18;101534.66;2618554;47;20254;-54
2023/03/17 12:28:45;;;;;;;1.73;1.30;;;;;;;11.97;54.45;101527.59;2618000;54;20157;-54
2023/03/17 12:31:21;;;;;;;1.13;0.53;;;;;;;11.85;54.98;101530.00;2618079;54;20204;-55
2023/03/17 12:34:01;;;;;;;0.87;0.47;;;;;;;11.82;55.65;101519.78;2618070;54;20164;-55
2023/03/17 12:36:40;;;;;;;1.23;0.80;;;;;;;11.82;56.05;101494.63;2618021;54;20203;-62
2023/03/17 12:39:13;;;;;;;1.60;0.80;;;;;;;11.78;54.54;101506.09;2617995;54;20165;-53
2023/03/17 12:42:13;;;;;;;1.13;1.03;;;;;;;11.47;57.93;101470.44;2617678;54;20154;-57
2023/03/17 12:45:02;;;;;;;0.30;0.30;;;;;;;11.67;58.09;101522.19;2617868;54;20692;-54
2023/03/17 12:47:49;;;;;;;0.93;0.73;;;;;;;11.78;59.17;101492.25;2618728;39;20564;-53
2023/03/17 12:50:49;;;;;;;0.53;0.53;;;;;;;11.38;56.02;101517.66;2618564;39;20878;-53
2023/03/17 12:53:39;;;;;;;3.10;0.73;;;;;;;11.40;55.89;101530.56;2617085;54;20196;-53
2023/03/17 12:56:15;;;;;;;0.20;0.20;;;;;;;11.80;56.03;101506.00;2618211;47;20699;-52
2023/03/17 12:58:48;;;;;;;0.50;0.50;;;;;;;11.70;57.09;101513.41;2617880;47;20165;-55
2023/03/17 13:01:28;;;;;;;1.03;0.83;;;;;;;11.34;53.41;101555.09;2617609;54;20189;-54
2023/03/17 13:04:04;;;;;;;0.60;0.60;;;;;;;11.35;53.76;101512.63;2618369;39;20244;-52
2023/03/17 13:06:41;;;;;;;0.53;0.40;;;;;;;11.43;55.28;101526.06;2618318;54;20672;-54
2023/03/17 13:09:44;;;;;;;1.77;0.40;;;;;;;11.50;54.68;101517.03;2617721;54;20157;-55
2023/03/17 13:12:44;;;;;;;0.57;0.57;;;;;;;12.00;54.25;101522.22;2618196;54;20153;-54
2023/03/17 13:15:25;;;;;;;0.70;0.50;;;;;;;11.86;53.51;101514.34;2617729;54;20197;-54
2023/03/17 13:18:26;;;;;;;1.03;0.93;;;;;;;12.10;54.16;101486.19;2617891;54;20164;-54
2023/03/17 13:21:13;;;;;;;1.25;0.60;;;;;;;12.10;55.57;101496.59;2618612;39;20862;-55
2023/03/17 13:23:46;;;;;;;2.93;0.80;;;;;;;12.32;51.50;101497.09;2617777;54;20158;-53
2023/03/17 13:26:19;;;;;;;3.00;1.10;;;;;;;12.66;50.92;101512.53;2617717;54;20189;-53
2023/03/17 13:28:51;;;;;;;1.63;1.07;;;;;;;12.77;49.18;101530.16;2618218;54;20185;-51
2023/03/17 13:31:35;;;;;;;2.23;0.70;;;;;;;13.49;47.66;101538.16;2618007;54;20181;-53
2023/03/17 13:34:15;;;;;;;0.97;0.60;;;;;;;13.25;46.81;101565.66;2617617;47;20733;-53
2023/03/17 13:36:56;;;;;;;0.80;0.70;;;;;;;12.28;48.94;101546.81;2617090;54;20160;-52
2023/03/17 13:40:00;;;;;;;0.40;0.40;;;;;;;12.09;51.70;101493.16;2617580;54;20187;-52
2023/03/17 13:42:43;;;;;;;0.60;0.60;;;;;;;12.30;49.25;101548.41;2617748;54;20170;-54
2023/03/17 13:45:26;;;;;;;2.37;0.87;;;;;;;13.08;49.32;101522.28;2618948;31;20668;-57
2023/03/17 13:48:43;;;;;;;3.30;0.90;;;;;;;13.07;48.06;101525.00;2618097;39;20541;-52
2023/03/17 13:51:21;;;;;;;0.83;0.83;;;;;;;12.40;49.46;101530.50;2616567;51;20223;-52
2023/03/17 13:53:55;;;;;;;0.70;0.40;;;;;;;12.02;50.68;101514.38;2617945;54;20165;-54
2023/03/17 13:56:29;;;;;;;1.30;0.80;;;;;;;12.17;51.80;101521.34;2617381;54;20188;-54
2023/03/17 13:59:14;;;;;;;2.10;1.03;;;;;;;12.48;50.36;101539.56;2617776;51;20173;-51
2023/03/17 14:01:49;;;;;;;0.40;0.40;;;;;;;13.24;48.74;101509.25;2617768;54;20165;-54
2023/03/17 14:04:23;;;;;;;0.80;0.80;;;;;;;13.59;49.00;101549.75;2617618;47;20169;-53
2023/03/17 14:07:00;;;;;;;3.67;0.87;;;;;;;13.56;48.37;101536.88;2617795;47;20144;-54
2023/03/17 14:09:38;;;;;;;0.93;0.80;;;;;;;12.45;49.32;101523.28;2617665;54;20157;-54
2023/03/17 14:12:15;;;;;;;0.93;0.40;;;;;;;12.09;51.35;101537.38;2617839;54;20173;-52
2023/03/17 14:14:52;;;;;;;0.77;0.77;;;;;;;11.73;50.28;101554.88;2617657;54;20192;-50
2023/03/17 14:17:26;;;;;;;1.10;0.60;;;;;;;11.43;51.12;101539.06;2618102;54;20145;-64
2023/03/17 14:20:09;;;;;;;0.70;0.70;;;;;;;11.35;52.49;101532.56;2618123;54;20202;-49
2023/03/17 14:22:47;;;;;;;0.73;0.53;;;;;;;11.25;53.50;101563.34;2619532;47;20165;-55
2023/03/17 14:25:19;;;;;;;1.47;1.17;;;;;;;11.21;52.06;101551.41;2618239;54;20187;-55
2023/03/17 14:27:52;;;;;;;0.67;0.40;;;;;;;11.31;53.10;101533.63;2617210;54;20157;-55
2023/03/17 14:30:25;;;;;;;0.93;0.70;;;;;;;12.17;52.52;101549.97;2618135;39;20568;-53
2023/03/17 14:33:02;;;;;;;0.40;0.40;;;;;;;12.99;50.63;101522.84;2617614;54;20165;-51
2023/03/17 14:35:34;;;;;;;3.43;1.07;;;;;;;13.28;50.25;101543.81;2618150;54;20187;-53
2023/03/17 14:38:19;;;;;;;1.33;0.80;;;;;;;13.38;48.81;101542.34;2617376;54;20153;-55
2023/03/17 14:40:50;;;;;;;2.78;0.98;;;;;;;13.42;47.89;101538.63;2617099;54;20384;-55
2023/03/17 14:43:20;;;;;;;1.10;1.00;;;;;;;13.15;47.40;101535.84;2617517;47;20169;-54
2023/03/17 14:45:52;;;;;;;2.50;1.87;;;;;;;13.24;46.89;101530.09;2617582;54;20231;-55
2023/03/17 14:48:28;;;;;;;1.25;0.47;;;;;;;13.54;47.05;101517.88;2617492;54;20166;-52
2023/03/17 14:51:04;;;;;;;2.05;0.75;;;;;;;13.79;44.85;101532.91;2617416;47;20172;-55
2023/03/17 14:53:41;;;;;;;0.20;0.20;;;;;;;13.21;47.02;101526.81;2617102;54;20184;-58
2023/03/17 14:56:12;;;;;;;0.98;0.70;;;;;;;13.50;47.58;101526.81;2617664;47;20181;-51
2023/03/17 14:58:45;;;;;;;1.30;0.70;;;;;;;13.48;46.53;101518.22;2617585;54;20165;-54
2023/03/17 15:01:18;;;;;;;5.03;1.48;;;;;;;13.66;46.41;101511.09;2617557;51;20208;-51
2023/03/17 15:03:57;;;;;;;1.20;0.80;;;;;;;13.06;47.27;101537.19;2617173;54;20162;-51
2023/03/17 15:06:32;;;;;;;4.63;1.48;;;;;;;12.36;47.43;101555.00;2617676;47;20179;-57
2023/03/17 15:09:20;;;;;;;2.67;1.30;;;;;;;11.70;48.63;101529.00;2617758;47;20172;-53
2023/03/17 15:11:50;;;;;;;2.93;1.50;;;;;;;11.55;49.14;101538.44;2617588;54;20248;-50
2023/03/17 15:14:33;;;;;;;1.70;0.70;;;;;;;11.52;50.20;101555.94;2617166;54;20157;-53
2023/03/17 15:17:05;;;;;;;2.90;1.33;;;;;;;11.46;49.19;101569.25;2617619;39;20562;-53
2023/03/17 15:19:41;;;;;;;2.53;1.23;;;;;;;11.64;51.03;101532.75;2617489;54;20185;-50
2023/03/17 15:22:26;;;;;;;2.83;0.90;;;;;;;12.18;49.59;101536.88;2618082;31;20654;-54
2023/03/17 15:25:19;;;;;;;2.07;1.13;;;;;;;12.07;48.04;101533.19;2617810;54;20253;-52
2023/03/17 15:27:50;;;;;;;0.50;0.40;;;;;;;11.77;48.49;101550.34;2617688;47;20165;-52
2023/03/17 15:30:21;;;;;;;1.60;0.80;;;;;;;11.49;48.33;101556.94;2618541;54;20195;-51
2023/03/17 15:32:59;;;;;;;1.20;1.00;;;;;;;11.33;49.87;101540.44;2617775;47;20157;-49
2023/03/17 15:35:30;;;;;;;1.23;0.80;;;;;;;11.37;48.46;101580.09;2618296;54;20177;-55
2023/03/17 15:38:00;;;;;;;0.33;0.33;;;;;;;11.37;48.13;101567.94;2617554;54;20169;-53
2023/03/17 15:40:33;;;;;;;1.67;0.77;;;;;;;11.31;48.70;101570.84;2617641;54;20208;-54
2023/03/17 15:43:03;;;;;;;1.20;0.77;;;;;;;11.23;48.63;101585.97;2618437;39;20558;-51
2023/03/17 15:45:33;;;;;;;1.60;1.23;;;;;;;11.17;48.26;101560.28;2618008;47;20184;-53
2023/03/17 15:48:03;;;;;;;1.53;0.57;;;;;;;11.22;48.63;101579.94;2618159;54;20208;-51
2023/03/17 15:50:34;;;;;;;1.13;0.50;;;;;;;11.15;50.51;101556.94;2618476;47;20181;-51
2023/03/17 15:53:04;;;;;;;2.73;0.80;;;;;;;11.12;49.61;101538.88;2617796;47;20158;-52
2023/03/17 15:55:37;;;;;;;2.27;0.60;;;;;;;11.42;48.90;101576.34;2618462;54;20196;-52
2023/03/17 15:58:07;;;;;;;3.43;0.77;;;;;;;11.57;48.87;101574.72;2618005;54;20172;-53
2023/03/17 16:00:37;;;;;;;1.07;0.57;;;;;;;11.77;48.06;101563.34;2618520;54;20169;-54
2023/03/17 16:03:17;;;;;;;1.23;0.73;;;;;;;11.53;47.10;101578.41;2617777;54;20172;-52
2023/03/17 16:05:47;;;;;;;1.85;0.30;;;;;;;11.50;46.93;101553.41;2617542;47;20204;-54
2023/03/17 16:08:18;;;;;;;3.13;1.00;;;;;;;11.34;47.20;101560.31;2618433;39;20594;-50
2023/03/17 16:10:51;;;;;;;1.03;0.10;;;;;;;11.36;47.24;101570.59;2618322;54;20184;-52
2023/03/17 16:13:21;;;;;;;0.07;0.07;;;;;;;11.17;48.00;101561.13;2618069;54;20158;-54
2023/03/17 16:15:56;;;;;;;0.87;0.63;;;;;;;11.15;48.20;101567.31;2618367;54;20200;-52
2023/03/17 16:18:33;;;;;;;1.33;0.40;;;;;;;11.03;47.39;101575.69;2617798;54;20187;-55
2023/03/17 16:21:04;;;;;;;1.93;0.93;;;;;;;10.99;48.40;101561.19;2617293;54;20189;-54
2023/03/17 16:23:37;;;;;;;1.70;0.93;;;;;;;10.91;48.74;101574.53;2617972;54;20172;-52
2023/03/17 16:26:10;;;;;;;2.37;0.60;;;;;;;11.00;48.47;101576.66;2618361;47;20173;-53
2023/03/17 16:28:46;;;;;;;1.90;0.70;;;;;;;10.88;49.00;101579.84;2617996;54;20165;-52
2023/03/17 16:31:28;;;;;;;0.20;0.20;;;;;;;10.76;49.85;101581.25;2617772;54;20213;-52
2023/03/17 16:33:59;;;;;;;3.03;0.40;;;;;;;10.78;49.96;101589.84;2618033;47;20188;-51
2023/03/17 16:36:31;;;;;;;0.00;0.00;;;;;;;10.80;49.63;101588.00;2618333;49;20196;-54
2023/03/17 16:39:01;;;;;;;1.43;0.53;;;;;;;10.70;49.88;101581.56;2617689;47;20161;-53
2023/03/17 16:41:36;;;;;;;0.70;0.47;;;;;;;10.65;49.60;101591.31;2617481;46;20197;-55
2023/03/17 16:44:08;;;;;;;1.70;0.70;;;;;;;10.67;51.79;101592.06;2617889;54;20707;-54
2023/03/17 16:46:38;;;;;;;0.73;0.30;;;;;;;10.79;52.52;101585.50;2618241;47;20260;-54
2023/03/17 16:49:08;;;;;;;0.00;0.00;;;;;;;11.05;59.19;101586.84;2618144;54;20158;-50
2023/03/17 16:51:39;;;;;;;0.00;0.00;;;;;;;11.15;65.34;101588.09;2617976;54;20197;-50
2023/03/17 16:54:09;;;;;;;9.17;0.40;;;;;;;11.19;72.35;101595.63;2617302;54;20700;-53
2023/03/17 16:56:43;;;;;;;0.20;0.20;;;;;;;11.15;86.38;101599.31;2618427;54;20177;-54
2023/03/17 16:59:20;;;;;;;0.00;0.00;;;;;;;11.27;90.20;101603.09;2617857;54;20157;-53
2023/03/17 17:01:51;;;;;;;0.53;0.53;;;;;;;11.08;90.82;101600.50;2617922;54;20176;-52
2023/03/17 17:04:23;;;;;;;0.50;0.50;;;;;;;11.21;95.74;101599.03;2616870;54;20165;-54
2023/03/17 17:06:53;;;;;;;5.47;5.10;;;;;;;11.43;99.17;101604.03;2617354;54;20157;-54
2023/03/17 17:09:23;;;;;;;0.10;0.10;;;;;;;11.31;100.00;101598.59;2617035;54;20169;-51
2023/03/17 17:11:57;;;;;;;45.00;7.00;;;;;;;11.43;100.00;101598.84;2617179;52;20157;-53
2023/03/17 17:14:27;;;;;;;0.37;0.37;;;;;;;11.26;94.31;101607.44;2617430;54;20188;-52
2023/03/17 17:16:57;;;;;;;0.47;0.47;;;;;;;11.20;90.49;101610.31;2617941;54;20152;-50
2023/03/17 17:19:27;;;;;;;0.40;0.30;;;;;;;11.53;100.00;101609.59;2617403;54;20176;-52
2023/03/17 17:21:57;;;;;;;4.93;1.40;;;;;;;11.23;96.04;101612.75;2617886;47;20154;-56
2023/03/17 17:24:28;;;;;;;0.73;0.73;;;;;;;11.27;100.00;101626.47;2618281;47;20157;-54
2023/03/17 17:27:01;;;;;;;0.30;0.30;;;;;;;11.30;100.00;101615.06;2618138;54;20145;-53
2023/03/17 17:29:31;;;;;;;0.00;0.00;;;;;;;11.51;100.00;101614.88;2617810;54;20172;-51
2023/03/17 17:32:01;;;;;;;0.00;0.00;;;;;;;11.93;100.00;101613.66;2617468;50;20165;-52
2023/03/17 17:34:31;;;;;;;1.60;0.50;;;;;;;11.84;100.00;101624.53;2617998;39;20598;-50
2023/03/17 17:37:01;;;;;;;0.20;0.13;;;;;;;11.47;91.14;101620.31;2617834;54;20160;-50
2023/03/17 17:39:31;;;;;;;0.07;0.07;;;;;;;11.60;99.18;101626.56;2617596;47;20169;-53
2023/03/17 17:42:04;;;;;;;0.00;0.00;;;;;;;11.59;100.00;101610.16;2617964;54;20237;-54
2023/03/17 17:44:34;;;;;;;0.20;0.13;;;;;;;11.61;100.00;101625.66;2617018;54;20157;-51
2023/03/17 17:47:06;;;;;;;0.23;0.23;;;;;;;11.16;94.15;101620.91;2617666;47;20176;-53
2023/03/17 17:49:36;;;;;;;0.00;0.00;;;;;;;11.08;93.64;101623.03;2617296;54;20185;-54
2023/03/17 17:52:07;;;;;;;0.10;0.10;;;;;;;11.22;93.44;101625.84;2617932;54;20184;-53
2023/03/17 17:54:37;;;;;;;0.03;0.03;;;;;;;11.32;95.88;101621.03;2617583;54;20216;-54
2023/03/17 17:57:10;;;;;;;0.10;0.10;;;;;;;11.30;100.00;101617.69;2617106;54;20176;-52
2023/03/17 17:59:40;;;;;;;0.00;0.00;;;;;;;11.47;100.00;101625.50;2617566;54;20193;-54
2023/03/17 18:02:11;;;;;;;0.00;0.00;;;;;;;11.43;99.83;101626.56;2617718;54;20157;-53
2023/03/17 18:04:42;;;;;;;0.00;0.00;;;;;;;11.00;88.28;101635.56;2616200;51;20224;-54
2023/03/17 18:07:12;;;;;;;0.00;0.00;;;;;;;11.14;93.41;101635.75;2616728;47;20157;-53
2023/03/17 18:09:42;;;;;;;0.60;0.60;;;;;;;11.16;90.09;101633.91;2617202;47;20181;-50
2023/03/17 18:12:15;;;;;;;0.67;0.67;;;;;;;11.48;100.00;101632.34;2616924;54;20150;-53
2023/03/17 18:14:45;;;;;;;0.30;0.20;;;;;;;11.24;100.00;101635.22;2616919;54;20248;-51
2023/03/17 18:17:20;;;;;;;1.50;0.63;;;;;;;11.31;97.50;101635.81;2616493;54;20245;-54
2023/03/17 18:19:51;;;;;;;0.20;0.20;;;;;;;11.50;100.00;101641.78;2616763;54;20862;-51
2023/03/17 18:22:22;;;;;;;0.93;0.87;;;;;;;11.43;100.00;101629.16;2616092;54;20301;-51
2023/03/17 18:24:52;;;;;;;0.67;0.67;;;;;;;11.37;98.05;101637.25;2617104;54;20193;-53
2023/03/17 18:27:25;;;;;;;0.00;0.00;;;;;;;11.80;100.00;101631.63;2617673;39;20561;-53
2023/03/17 18:29:56;;;;;;;11.83;11.40;;;;;;;11.85;100.00;101639.22;2616967;54;20189;-54
2023/03/17 18:32:27;;;;;;;0.63;0.60;;;;;;;11.87;100.00;101634.78;2616124;54;20195;-52
2023/03/17 18:35:01;;;;;;;0.00;0.00;;;;;;;11.82;100.00;101644.56;2617199;49;20217;-51
2023/03/17 18:37:34;;;;;;;0.00;0.00;;;;;;;12.04;100.00;101633.00;2617010;47;20161;-55
2023/03/17 18:40:05;;;;;;;0.30;0.30;;;;;;;11.73;94.09;101644.13;2617417;47;20196;-54
2023/03/17 18:42:49;;;;;;;0.00;0.00;;;;;;;12.32;100.00;101632.41;2617134;47;20165;-54
2023/03/17 18:45:19;;;;;;;0.00;0.00;;;;;;;12.11;100.00;101649.16;2617057;54;20189;-57
2023/03/17 18:47:49;;;;;;;0.00;0.00;;;;;;;12.14;100.00;101643.78;2617199;47;20172;-52
2023/03/17 18:50:20;;;;;;;0.00;0.00;;;;;;;12.29;100.00;101647.34;2617748;54;20173;-50
2023/03/17 18:52:51;;;;;;;0.10;0.10;;;;;;;12.02;99.81;101655.66;2617187;47;20157;-50
2023/03/17 18:55:21;;;;;;;0.00;0.00;;;;;;;12.38;100.00;101646.88;2617424;54;20276;-54
